Portada
METAR-TAF:

METAR-TAF

Aeropuertos :

Aeropuerto Internacional Charles Kirkconnell

Caimán Brac, Islas Caimán

latitud: 19-41-13N, longitud: 079-52-58W, altitud: 2 m

Observación

El informe se hizo hace 1 hora y 3 minutos, a las 14:00 UTC
Viento 6 kt del noreste
Temperatura 29°C
Humedad 70%
Presión 1016 hPa
Visibilidad 10 km o más
Escasas nubes a una altura de 2000 ft

METAR: MWCB 231400Z 04006KT 9999 FEW020 29/23 Q1016

Hora: 10:03 (15:03 UTC)

Pronóstico

El informe se hizo hace 4 horas y 3 minutos, a las 11:00 UTC
Pronóstico válido del 23 a las 12 UTC al 24 a las 12 UTC
Viento 13 kt del este
Visibilidad 10 km o más
Nubes dispersas a una altura de 1800 ft
chaparrones en las proximidades
Probabilidad 30% :
Temporalmente
del 23 a las 16 UTC al 23 a las 23 UTC
Visibilidad: 9000 m
Nubes dispersas a una altura de 1600 ft
chaparrones de lluvia,

TAF: MWCB 231100Z 2312/2412 08013KT 9999 VCSH SCT018 PROB30 TEMPO 2316/2323 9000 SHRA SCT016

Observaciones y pronósticos meteorológicos de más de 4000 aeropuertos (mensajes METAR y TAF).

Los puntos amarillos y rojos representan las estaciones disponibles.

Ponga el ratón en el punto deseado para ver el nombre de la estación.

Haga clic para ver las observaciones y los pronósticos meteorológicos.

Para cambiar el mapa : haga clic en los botones verdes con una cruz de color negro para hacer un zoom, en el botón verde con un guión para alejar o en las flechas verdes para mapas adyacentes.


METAR-TAF: